sensor_id;sensor_type;location;lat;lon;timestamp;temperature;humidity
12853;DHT22;6495;51.808;7.478;2024-03-08T00:00:19;4.30;99.90
12853;DHT22;6495;51.808;7.478;2024-03-08T00:02:48;4.20;99.90
12853;DHT22;6495;51.808;7.478;2024-03-08T00:05:18;4.20;99.90
12853;DHT22;6495;51.808;7.478;2024-03-08T00:07:46;4.20;99.90
12853;DHT22;6495;51.808;7.478;2024-03-08T00:10:15;4.20;99.90
12853;DHT22;6495;51.808;7.478;2024-03-08T00:12:45;4.10;99.90
12853;DHT22;6495;51.808;7.478;2024-03-08T00:15:15;4.10;99.90
12853;DHT22;6495;51.808;7.478;2024-03-08T00:17:47;4.10;99.90
12853;DHT22;6495;51.808;7.478;2024-03-08T00:20:16;4.10;99.90
12853;DHT22;6495;51.808;7.478;2024-03-08T00:22:46;4.00;99.90
12853;DHT22;6495;51.808;7.478;2024-03-08T00:25:15;4.00;99.90
12853;DHT22;6495;51.808;7.478;2024-03-08T00:27:43;4.00;99.90
12853;DHT22;6495;51.808;7.478;2024-03-08T00:30:12;4.00;99.90
12853;DHT22;6495;51.808;7.478;2024-03-08T00:32:41;4.00;99.90
12853;DHT22;6495;51.808;7.478;2024-03-08T00:35:11;4.00;99.90
12853;DHT22;6495;51.808;7.478;2024-03-08T00:37:40;3.90;99.90
12853;DHT22;6495;51.808;7.478;2024-03-08T00:40:09;3.90;99.90
12853;DHT22;6495;51.808;7.478;2024-03-08T00:42:38;3.90;99.90
12853;DHT22;6495;51.808;7.478;2024-03-08T00:45:08;3.80;99.90
12853;DHT22;6495;51.808;7.478;2024-03-08T00:47:38;3.80;99.90
12853;DHT22;6495;51.808;7.478;2024-03-08T00:50:11;3.80;99.90
12853;DHT22;6495;51.808;7.478;2024-03-08T00:52:39;3.80;99.90
12853;DHT22;6495;51.808;7.478;2024-03-08T00:55:08;3.80;99.90
12853;DHT22;6495;51.808;7.478;2024-03-08T00:57:37;3.80;99.90
12853;DHT22;6495;51.808;7.478;2024-03-08T01:00:07;3.70;99.90
12853;DHT22;6495;51.808;7.478;2024-03-08T01:02:39;3.70;99.90
12853;DHT22;6495;51.808;7.478;2024-03-08T01:05:08;3.70;99.90
12853;DHT22;6495;51.808;7.478;2024-03-08T01:07:38;3.70;99.90
12853;DHT22;6495;51.808;7.478;2024-03-08T01:10:07;3.60;99.90
12853;DHT22;6495;51.808;7.478;2024-03-08T01:12:37;3.60;99.90
12853;DHT22;6495;51.808;7.478;2024-03-08T01:15:06;3.60;99.90
12853;DHT22;6495;51.808;7.478;2024-03-08T01:17:35;3.60;99.90
12853;DHT22;6495;51.808;7.478;2024-03-08T01:20:06;3.50;99.90
12853;DHT22;6495;51.808;7.478;2024-03-08T01:22:40;3.50;99.90
12853;DHT22;6495;51.808;7.478;2024-03-08T01:25:08;3.50;99.90
12853;DHT22;6495;51.808;7.478;2024-03-08T01:27:37;3.50;99.90
12853;DHT22;6495;51.808;7.478;2024-03-08T01:30:06;3.50;99.90
12853;DHT22;6495;51.808;7.478;2024-03-08T01:32:37;3.50;99.90
12853;DHT22;6495;51.808;7.478;2024-03-08T01:35:06;3.40;99.90
12853;DHT22;6495;51.808;7.478;2024-03-08T01:37:36;3.40;99.90
12853;DHT22;6495;51.808;7.478;2024-03-08T01:40:07;3.40;99.90
12853;DHT22;6495;51.808;7.478;2024-03-08T01:42:36;3.40;99.90
12853;DHT22;6495;51.808;7.478;2024-03-08T01:45:06;3.40;99.90
12853;DHT22;6495;51.808;7.478;2024-03-08T01:47:35;3.40;99.90
12853;DHT22;6495;51.808;7.478;2024-03-08T01:50:05;3.30;99.90
12853;DHT22;6495;51.808;7.478;2024-03-08T01:52:34;3.30;99.90
12853;DHT22;6495;51.808;7.478;2024-03-08T01:55:06;3.30;99.90
12853;DHT22;6495;51.808;7.478;2024-03-08T01:57:35;3.30;99.90
12853;DHT22;6495;51.808;7.478;2024-03-08T02:00:06;3.30;99.90
12853;DHT22;6495;51.808;7.478;2024-03-08T02:02:37;3.20;99.90
12853;DHT22;6495;51.808;7.478;2024-03-08T02:05:08;3.20;99.90
12853;DHT22;6495;51.808;7.478;2024-03-08T02:07:50;3.20;99.90
12853;DHT22;6495;51.808;7.478;2024-03-08T02:10:19;3.20;99.90
12853;DHT22;6495;51.808;7.478;2024-03-08T02:12:49;3.20;99.90
12853;DHT22;6495;51.808;7.478;2024-03-08T02:15:18;3.20;99.90
12853;DHT22;6495;51.808;7.478;2024-03-08T02:17:48;3.20;99.90
12853;DHT22;6495;51.808;7.478;2024-03-08T02:20:16;3.10;99.90
12853;DHT22;6495;51.808;7.478;2024-03-08T02:22:48;3.10;99.90
12853;DHT22;6495;51.808;7.478;2024-03-08T02:25:18;3.10;99.90
12853;DHT22;6495;51.808;7.478;2024-03-08T02:27:47;3.10;99.90
12853;DHT22;6495;51.808;7.478;2024-03-08T02:30:15;3.10;99.90
12853;DHT22;6495;51.808;7.478;2024-03-08T02:32:44;3.10;99.90
12853;DHT22;6495;51.808;7.478;2024-03-08T02:35:12;3.10;99.90
12853;DHT22;6495;51.808;7.478;2024-03-08T02:37:41;3.10;99.90
12853;DHT22;6495;51.808;7.478;2024-03-08T02:40:12;3.00;99.90
12853;DHT22;6495;51.808;7.478;2024-03-08T02:42:40;3.00;99.90
12853;DHT22;6495;51.808;7.478;2024-03-08T02:45:08;3.00;99.90
12853;DHT22;6495;51.808;7.478;2024-03-08T02:47:38;3.00;99.90
12853;DHT22;6495;51.808;7.478;2024-03-08T02:50:07;3.00;99.90
12853;DHT22;6495;51.808;7.478;2024-03-08T02:52:35;3.00;99.90
12853;DHT22;6495;51.808;7.478;2024-03-08T02:55:04;3.00;99.90
12853;DHT22;6495;51.808;7.478;2024-03-08T02:57:38;3.00;99.90
12853;DHT22;6495;51.808;7.478;2024-03-08T03:00:07;3.00;99.90
12853;DHT22;6495;51.808;7.478;2024-03-08T03:02:36;3.00;99.90
12853;DHT22;6495;51.808;7.478;2024-03-08T03:05:05;3.00;99.90
12853;DHT22;6495;51.808;7.478;2024-03-08T03:07:36;2.90;99.90
12853;DHT22;6495;51.808;7.478;2024-03-08T03:10:06;2.90;99.90
12853;DHT22;6495;51.808;7.478;2024-03-08T03:12:35;2.90;99.90
12853;DHT22;6495;51.808;7.478;2024-03-08T03:15:05;2.90;99.90
12853;DHT22;6495;51.808;7.478;2024-03-08T03:17:34;2.90;99.90
12853;DHT22;6495;51.808;7.478;2024-03-08T03:20:04;2.90;99.90
12853;DHT22;6495;51.808;7.478;2024-03-08T03:22:37;2.90;99.90
12853;DHT22;6495;51.808;7.478;2024-03-08T03:25:06;2.90;99.90
12853;DHT22;6495;51.808;7.478;2024-03-08T03:27:36;2.90;99.90
12853;DHT22;6495;51.808;7.478;2024-03-08T03:30:07;2.90;99.90
12853;DHT22;6495;51.808;7.478;2024-03-08T03:32:48;2.90;99.90
12853;DHT22;6495;51.808;7.478;2024-03-08T03:35:18;2.80;99.90
12853;DHT22;6495;51.808;7.478;2024-03-08T03:37:48;2.80;99.90
12853;DHT22;6495;51.808;7.478;2024-03-08T03:40:28;2.80;99.90
12853;DHT22;6495;51.808;7.478;2024-03-08T03:42:56;2.80;99.90
12853;DHT22;6495;51.808;7.478;2024-03-08T03:45:26;2.80;99.90
12853;DHT22;6495;51.808;7.478;2024-03-08T03:47:55;2.80;99.90
12853;DHT22;6495;51.808;7.478;2024-03-08T03:50:23;2.80;99.90
12853;DHT22;6495;51.808;7.478;2024-03-08T03:52:51;2.80;99.90
12853;DHT22;6495;51.808;7.478;2024-03-08T03:55:19;2.70;99.90
12853;DHT22;6495;51.808;7.478;2024-03-08T03:57:48;2.70;99.90
12853;DHT22;6495;51.808;7.478;2024-03-08T04:00:16;2.70;99.90
12853;DHT22;6495;51.808;7.478;2024-03-08T04:02:46;2.70;99.90
12853;DHT22;6495;51.808;7.478;2024-03-08T04:05:15;2.70;99.90
12853;DHT22;6495;51.808;7.478;2024-03-08T04:07:44;2.70;99.90
12853;DHT22;6495;51.808;7.478;2024-03-08T04:10:12;2.70;99.90
12853;DHT22;6495;51.808;7.478;2024-03-08T04:12:41;2.70;99.90
12853;DHT22;6495;51.808;7.478;2024-03-08T04:15:09;2.70;99.90
12853;DHT22;6495;51.808;7.478;2024-03-08T04:17:38;2.70;99.90
12853;DHT22;6495;51.808;7.478;2024-03-08T04:20:08;2.60;99.90
12853;DHT22;6495;51.808;7.478;2024-03-08T04:22:38;2.60;99.90
12853;DHT22;6495;51.808;7.478;2024-03-08T04:25:07;2.60;99.90
12853;DHT22;6495;51.808;7.478;2024-03-08T04:27:36;2.60;99.90
12853;DHT22;6495;51.808;7.478;2024-03-08T04:30:05;2.60;99.90
12853;DHT22;6495;51.808;7.478;2024-03-08T04:32:35;2.60;99.90
12853;DHT22;6495;51.808;7.478;2024-03-08T04:35:05;2.60;99.90
12853;DHT22;6495;51.808;7.478;2024-03-08T04:37:35;2.60;99.90
12853;DHT22;6495;51.808;7.478;2024-03-08T04:40:07;2.50;99.90
12853;DHT22;6495;51.808;7.478;2024-03-08T04:42:37;2.50;99.90
12853;DHT22;6495;51.808;7.478;2024-03-08T04:45:08;2.50;99.90
12853;DHT22;6495;51.808;7.478;2024-03-08T04:47:37;2.50;99.90
12853;DHT22;6495;51.808;7.478;2024-03-08T04:50:07;2.50;99.90
12853;DHT22;6495;51.808;7.478;2024-03-08T04:52:37;2.50;99.90
12853;DHT22;6495;51.808;7.478;2024-03-08T04:55:06;2.50;99.90
12853;DHT22;6495;51.808;7.478;2024-03-08T04:57:34;2.50;99.90
12853;DHT22;6495;51.808;7.478;2024-03-08T05:00:04;2.50;99.90
12853;DHT22;6495;51.808;7.478;2024-03-08T05:02:40;2.40;99.90
12853;DHT22;6495;51.808;7.478;2024-03-08T05:05:09;2.40;99.90
12853;DHT22;6495;51.808;7.478;2024-03-08T05:07:40;2.40;99.90
12853;DHT22;6495;51.808;7.478;2024-03-08T05:10:10;2.40;99.90
12853;DHT22;6495;51.808;7.478;2024-03-08T05:12:39;2.40;99.90
12853;DHT22;6495;51.808;7.478;2024-03-08T05:15:07;2.40;99.90
12853;DHT22;6495;51.808;7.478;2024-03-08T05:17:36;2.40;99.90
12853;DHT22;6495;51.808;7.478;2024-03-08T05:20:05;2.40;99.90
12853;DHT22;6495;51.808;7.478;2024-03-08T05:22:35;2.40;99.90
12853;DHT22;6495;51.808;7.478;2024-03-08T05:25:05;2.40;99.90
12853;DHT22;6495;51.808;7.478;2024-03-08T05:27:35;2.30;99.90
12853;DHT22;6495;51.808;7.478;2024-03-08T05:30:05;2.30;99.90
12853;DHT22;6495;51.808;7.478;2024-03-08T05:32:34;2.30;99.90
12853;DHT22;6495;51.808;7.478;2024-03-08T05:35:02;2.30;99.90
12853;DHT22;6495;51.808;7.478;2024-03-08T05:37:33;2.30;99.90
12853;DHT22;6495;51.808;7.478;2024-03-08T05:40:04;2.30;99.90
12853;DHT22;6495;51.808;7.478;2024-03-08T05:42:53;2.30;99.90
12853;DHT22;6495;51.808;7.478;2024-03-08T05:45:22;2.30;99.90
12853;DHT22;6495;51.808;7.478;2024-03-08T05:47:57;2.30;99.90
12853;DHT22;6495;51.808;7.478;2024-03-08T05:50:35;2.30;99.90
12853;DHT22;6495;51.808;7.478;2024-03-08T05:53:05;2.30;99.90
12853;DHT22;6495;51.808;7.478;2024-03-08T05:55:43;2.20;99.90
12853;DHT22;6495;51.808;7.478;2024-03-08T05:58:19;2.20;99.90
12853;DHT22;6495;51.808;7.478;2024-03-08T06:00:49;2.20;99.90
12853;DHT22;6495;51.808;7.478;2024-03-08T06:03:19;2.20;99.90
12853;DHT22;6495;51.808;7.478;2024-03-08T06:05:56;2.20;99.90
12853;DHT22;6495;51.808;7.478;2024-03-08T06:08:39;2.20;99.90
12853;DHT22;6495;51.808;7.478;2024-03-08T06:12:09;2.20;99.90
12853;DHT22;6495;51.808;7.478;2024-03-08T06:15:12;2.20;99.90
12853;DHT22;6495;51.808;7.478;2024-03-08T06:18:05;2.20;99.90
12853;DHT22;6495;51.808;7.478;2024-03-08T06:21:17;2.20;99.90
12853;DHT22;6495;51.808;7.478;2024-03-08T06:24:24;2.10;99.90
12853;DHT22;6495;51.808;7.478;2024-03-08T06:30:59;2.10;99.90
12853;DHT22;6495;51.808;7.478;2024-03-08T06:33:30;2.10;99.90
12853;DHT22;6495;51.808;7.478;2024-03-08T06:35:59;2.20;99.90
12853;DHT22;6495;51.808;7.478;2024-03-08T06:38:29;2.10;99.90
12853;DHT22;6495;51.808;7.478;2024-03-08T06:41:00;2.10;99.90
12853;DHT22;6495;51.808;7.478;2024-03-08T06:43:32;2.10;99.90
12853;DHT22;6495;51.808;7.478;2024-03-08T06:46:04;2.20;99.90
12853;DHT22;6495;51.808;7.478;2024-03-08T06:48:36;2.20;99.90
12853;DHT22;6495;51.808;7.478;2024-03-08T06:51:05;2.20;99.90
12853;DHT22;6495;51.808;7.478;2024-03-08T06:53:34;2.20;99.90
12853;DHT22;6495;51.808;7.478;2024-03-08T06:56:06;2.20;99.90
12853;DHT22;6495;51.808;7.478;2024-03-08T06:59:02;2.30;99.90
12853;DHT22;6495;51.808;7.478;2024-03-08T07:01:50;2.30;99.90
12853;DHT22;6495;51.808;7.478;2024-03-08T07:04:29;2.30;99.90
12853;DHT22;6495;51.808;7.478;2024-03-08T07:07:17;2.30;99.90
12853;DHT22;6495;51.808;7.478;2024-03-08T07:10:51;2.30;99.90
12853;DHT22;6495;51.808;7.478;2024-03-08T07:13:49;2.40;99.90
12853;DHT22;6495;51.808;7.478;2024-03-08T07:16:25;2.40;99.90
12853;DHT22;6495;51.808;7.478;2024-03-08T07:18:55;2.40;99.90
12853;DHT22;6495;51.808;7.478;2024-03-08T07:21:30;2.50;99.90
12853;DHT22;6495;51.808;7.478;2024-03-08T07:28:33;2.50;99.90
12853;DHT22;6495;51.808;7.478;2024-03-08T07:31:05;2.60;99.90
12853;DHT22;6495;51.808;7.478;2024-03-08T07:33:48;2.60;99.90
12853;DHT22;6495;51.808;7.478;2024-03-08T07:36:18;2.70;99.90
12853;DHT22;6495;51.808;7.478;2024-03-08T07:38:50;2.70;99.90
12853;DHT22;6495;51.808;7.478;2024-03-08T07:41:18;2.80;99.90
12853;DHT22;6495;51.808;7.478;2024-03-08T07:43:49;2.80;99.90
12853;DHT22;6495;51.808;7.478;2024-03-08T07:46:31;2.90;99.90
12853;DHT22;6495;51.808;7.478;2024-03-08T07:49:01;2.90;99.90
12853;DHT22;6495;51.808;7.478;2024-03-08T07:51:34;2.90;99.90
12853;DHT22;6495;51.808;7.478;2024-03-08T07:54:03;3.00;99.90
12853;DHT22;6495;51.808;7.478;2024-03-08T07:56:32;3.10;99.90
12853;DHT22;6495;51.808;7.478;2024-03-08T07:59:06;3.10;99.90
12853;DHT22;6495;51.808;7.478;2024-03-08T08:01:40;3.20;99.90
12853;DHT22;6495;51.808;7.478;2024-03-08T08:04:10;3.20;99.90
12853;DHT22;6495;51.808;7.478;2024-03-08T08:06:41;3.30;99.90
12853;DHT22;6495;51.808;7.478;2024-03-08T08:09:12;3.40;99.90
12853;DHT22;6495;51.808;7.478;2024-03-08T08:11:47;3.50;99.90
12853;DHT22;6495;51.808;7.478;2024-03-08T08:14:17;3.60;99.90
12853;DHT22;6495;51.808;7.478;2024-03-08T08:16:49;3.70;99.90
12853;DHT22;6495;51.808;7.478;2024-03-08T08:19:27;3.80;99.90
12853;DHT22;6495;51.808;7.478;2024-03-08T08:21:57;3.90;99.90
12853;DHT22;6495;51.808;7.478;2024-03-08T08:24:27;4.00;99.90
12853;DHT22;6495;51.808;7.478;2024-03-08T08:26:56;4.10;99.90
12853;DHT22;6495;51.808;7.478;2024-03-08T08:29:24;4.20;99.90
12853;DHT22;6495;51.808;7.478;2024-03-08T08:32:01;4.30;99.90
12853;DHT22;6495;51.808;7.478;2024-03-08T08:34:32;4.40;99.90
12853;DHT22;6495;51.808;7.478;2024-03-08T08:37:01;4.60;99.90
12853;DHT22;6495;51.808;7.478;2024-03-08T08:39:34;4.70;99.90
12853;DHT22;6495;51.808;7.478;2024-03-08T08:42:02;4.80;99.90
12853;DHT22;6495;51.808;7.478;2024-03-08T08:44:38;4.90;99.90
12853;DHT22;6495;51.808;7.478;2024-03-08T08:47:10;5.00;99.90
12853;DHT22;6495;51.808;7.478;2024-03-08T08:49:42;5.10;99.90
12853;DHT22;6495;51.808;7.478;2024-03-08T08:52:11;5.10;99.90
12853;DHT22;6495;51.808;7.478;2024-03-08T08:54:45;5.20;99.90
12853;DHT22;6495;51.808;7.478;2024-03-08T08:57:16;5.20;99.90
12853;DHT22;6495;51.808;7.478;2024-03-08T08:59:50;5.30;99.90
12853;DHT22;6495;51.808;7.478;2024-03-08T09:02:23;5.40;99.90
12853;DHT22;6495;51.808;7.478;2024-03-08T09:04:55;5.50;99.90
12853;DHT22;6495;51.808;7.478;2024-03-08T09:07:26;5.60;99.90
12853;DHT22;6495;51.808;7.478;2024-03-08T09:09:55;5.60;99.90
12853;DHT22;6495;51.808;7.478;2024-03-08T09:12:26;5.60;99.90
12853;DHT22;6495;51.808;7.478;2024-03-08T09:14:54;5.70;99.90
12853;DHT22;6495;51.808;7.478;2024-03-08T09:17:25;5.80;99.90
12853;DHT22;6495;51.808;7.478;2024-03-08T09:19:57;5.90;99.90
12853;DHT22;6495;51.808;7.478;2024-03-08T09:22:30;6.00;99.90
12853;DHT22;6495;51.808;7.478;2024-03-08T09:25:01;6.20;99.90
12853;DHT22;6495;51.808;7.478;2024-03-08T09:27:33;6.30;99.90
12853;DHT22;6495;51.808;7.478;2024-03-08T09:30:07;6.40;99.90
12853;DHT22;6495;51.808;7.478;2024-03-08T09:32:44;6.50;99.90
12853;DHT22;6495;51.808;7.478;2024-03-08T09:35:15;6.50;99.90
12853;DHT22;6495;51.808;7.478;2024-03-08T09:37:47;6.60;99.90
12853;DHT22;6495;51.808;7.478;2024-03-08T09:40:24;6.60;99.90
12853;DHT22;6495;51.808;7.478;2024-03-08T09:42:55;6.70;99.90
12853;DHT22;6495;51.808;7.478;2024-03-08T09:45:28;6.80;99.90
12853;DHT22;6495;51.808;7.478;2024-03-08T09:48:01;6.90;99.90
12853;DHT22;6495;51.808;7.478;2024-03-08T09:50:32;7.00;99.90
12853;DHT22;6495;51.808;7.478;2024-03-08T09:53:04;7.10;99.90
12853;DHT22;6495;51.808;7.478;2024-03-08T09:55:36;7.20;99.90
12853;DHT22;6495;51.808;7.478;2024-03-08T09:58:18;7.30;99.90
12853;DHT22;6495;51.808;7.478;2024-03-08T10:01:16;7.40;99.90
12853;DHT22;6495;51.808;7.478;2024-03-08T10:03:48;7.60;99.90
12853;DHT22;6495;51.808;7.478;2024-03-08T10:06:22;7.70;99.90
12853;DHT22;6495;51.808;7.478;2024-03-08T10:08:51;7.80;99.90
12853;DHT22;6495;51.808;7.478;2024-03-08T10:11:20;7.90;99.90
12853;DHT22;6495;51.808;7.478;2024-03-08T10:13:48;7.90;99.90
12853;DHT22;6495;51.808;7.478;2024-03-08T10:16:18;7.90;99.90
12853;DHT22;6495;51.808;7.478;2024-03-08T10:18:48;7.90;99.90
12853;DHT22;6495;51.808;7.478;2024-03-08T10:21:16;8.00;99.90
12853;DHT22;6495;51.808;7.478;2024-03-08T10:23:46;8.00;99.90
12853;DHT22;6495;51.808;7.478;2024-03-08T10:26:16;8.00;99.90
12853;DHT22;6495;51.808;7.478;2024-03-08T10:28:47;8.00;99.90
12853;DHT22;6495;51.808;7.478;2024-03-08T10:31:17;8.20;99.90
12853;DHT22;6495;51.808;7.478;2024-03-08T10:33:48;8.30;99.90
12853;DHT22;6495;51.808;7.478;2024-03-08T10:36:17;8.30;99.90
12853;DHT22;6495;51.808;7.478;2024-03-08T10:38:46;8.40;99.90
12853;DHT22;6495;51.808;7.478;2024-03-08T10:41:20;8.50;99.90
12853;DHT22;6495;51.808;7.478;2024-03-08T10:47:41;8.50;99.90
12853;DHT22;6495;51.808;7.478;2024-03-08T10:50:18;8.50;99.90
12853;DHT22;6495;51.808;7.478;2024-03-08T10:52:49;8.60;99.90
12853;DHT22;6495;51.808;7.478;2024-03-08T10:55:19;8.60;99.90
12853;DHT22;6495;51.808;7.478;2024-03-08T10:57:48;8.70;99.90
12853;DHT22;6495;51.808;7.478;2024-03-08T11:00:18;8.70;99.90
12853;DHT22;6495;51.808;7.478;2024-03-08T11:02:56;8.70;99.90
12853;DHT22;6495;51.808;7.478;2024-03-08T11:05:38;8.80;99.90
12853;DHT22;6495;51.808;7.478;2024-03-08T11:08:18;8.90;99.90
12853;DHT22;6495;51.808;7.478;2024-03-08T11:10:49;9.00;99.90
12853;DHT22;6495;51.808;7.478;2024-03-08T11:13:33;9.10;99.90
12853;DHT22;6495;51.808;7.478;2024-03-08T11:16:03;9.20;99.90
12853;DHT22;6495;51.808;7.478;2024-03-08T11:18:37;9.30;99.90
12853;DHT22;6495;51.808;7.478;2024-03-08T11:21:08;9.40;99.90
12853;DHT22;6495;51.808;7.478;2024-03-08T11:23:40;9.50;99.90
12853;DHT22;6495;51.808;7.478;2024-03-08T11:26:18;9.60;99.90
12853;DHT22;6495;51.808;7.478;2024-03-08T11:28:47;9.70;99.90
12853;DHT22;6495;51.808;7.478;2024-03-08T11:31:23;9.70;99.90
12853;DHT22;6495;51.808;7.478;2024-03-08T11:33:54;9.70;99.90
12853;DHT22;6495;51.808;7.478;2024-03-08T11:36:26;9.70;99.90
12853;DHT22;6495;51.808;7.478;2024-03-08T11:39:01;9.70;99.90
12853;DHT22;6495;51.808;7.478;2024-03-08T11:41:36;9.70;99.90
12853;DHT22;6495;51.808;7.478;2024-03-08T11:44:06;9.80;99.90
12853;DHT22;6495;51.808;7.478;2024-03-08T11:46:36;9.90;99.90
12853;DHT22;6495;51.808;7.478;2024-03-08T11:49:08;9.90;99.90
12853;DHT22;6495;51.808;7.478;2024-03-08T11:51:42;10.00;99.90
12853;DHT22;6495;51.808;7.478;2024-03-08T11:54:12;10.00;99.90
12853;DHT22;6495;51.808;7.478;2024-03-08T11:56:41;10.00;99.90
12853;DHT22;6495;51.808;7.478;2024-03-08T11:59:11;10.00;99.90
12853;DHT22;6495;51.808;7.478;2024-03-08T12:02:02;10.10;99.90
12853;DHT22;6495;51.808;7.478;2024-03-08T12:04:35;10.10;99.90
12853;DHT22;6495;51.808;7.478;2024-03-08T12:39:30;10.20;99.90
12853;DHT22;6495;51.808;7.478;2024-03-08T12:42:02;10.20;99.90
12853;DHT22;6495;51.808;7.478;2024-03-08T12:44:33;10.20;99.90
12853;DHT22;6495;51.808;7.478;2024-03-08T12:47:27;10.20;99.90
12853;DHT22;6495;51.808;7.478;2024-03-08T12:49:56;10.20;99.90
12853;DHT22;6495;51.808;7.478;2024-03-08T12:52:25;10.20;99.90
12853;DHT22;6495;51.808;7.478;2024-03-08T12:54:55;10.20;99.90
12853;DHT22;6495;51.808;7.478;2024-03-08T12:57:24;10.10;99.90
12853;DHT22;6495;51.808;7.478;2024-03-08T12:59:55;10.00;99.90
12853;DHT22;6495;51.808;7.478;2024-03-08T13:02:23;9.90;99.90
12853;DHT22;6495;51.808;7.478;2024-03-08T13:04:53;9.90;99.90
12853;DHT22;6495;51.808;7.478;2024-03-08T13:07:25;9.90;99.90
12853;DHT22;6495;51.808;7.478;2024-03-08T13:09:55;9.90;99.90
12853;DHT22;6495;51.808;7.478;2024-03-08T13:12:26;9.90;99.90
12853;DHT22;6495;51.808;7.478;2024-03-08T13:14:55;9.90;99.90
12853;DHT22;6495;51.808;7.478;2024-03-08T13:17:24;9.80;99.90
12853;DHT22;6495;51.808;7.478;2024-03-08T13:19:53;9.90;99.90
12853;DHT22;6495;51.808;7.478;2024-03-08T13:22:24;9.90;99.90
12853;DHT22;6495;51.808;7.478;2024-03-08T13:24:56;9.90;99.90
12853;DHT22;6495;51.808;7.478;2024-03-08T13:27:27;9.90;99.90
12853;DHT22;6495;51.808;7.478;2024-03-08T13:29:56;9.80;99.90
12853;DHT22;6495;51.808;7.478;2024-03-08T13:32:27;9.80;99.90
12853;DHT22;6495;51.808;7.478;2024-03-08T13:34:57;9.80;99.90
12853;DHT22;6495;51.808;7.478;2024-03-08T13:37:26;9.80;99.90
12853;DHT22;6495;51.808;7.478;2024-03-08T13:39:55;9.80;99.90
12853;DHT22;6495;51.808;7.478;2024-03-08T13:42:24;9.80;99.90
12853;DHT22;6495;51.808;7.478;2024-03-08T13:44:53;9.80;99.90
12853;DHT22;6495;51.808;7.478;2024-03-08T13:47:22;9.70;99.90
12853;DHT22;6495;51.808;7.478;2024-03-08T13:49:51;9.70;99.90
12853;DHT22;6495;51.808;7.478;2024-03-08T13:52:20;9.70;99.90
12853;DHT22;6495;51.808;7.478;2024-03-08T13:54:48;9.70;99.90
12853;DHT22;6495;51.808;7.478;2024-03-08T13:57:19;9.70;99.90
12853;DHT22;6495;51.808;7.478;2024-03-08T13:59:49;9.70;99.90
12853;DHT22;6495;51.808;7.478;2024-03-08T14:02:18;9.70;99.90
12853;DHT22;6495;51.808;7.478;2024-03-08T14:04:49;9.70;99.90
12853;DHT22;6495;51.808;7.478;2024-03-08T14:07:19;9.70;99.90
12853;DHT22;6495;51.808;7.478;2024-03-08T14:09:47;9.60;99.90
12853;DHT22;6495;51.808;7.478;2024-03-08T14:12:15;9.60;99.90
12853;DHT22;6495;51.808;7.478;2024-03-08T14:14:47;9.70;99.90
12853;DHT22;6495;51.808;7.478;2024-03-08T14:17:16;9.70;99.90
12853;DHT22;6495;51.808;7.478;2024-03-08T14:19:45;9.70;99.90
12853;DHT22;6495;51.808;7.478;2024-03-08T14:22:15;9.70;99.90
12853;DHT22;6495;51.808;7.478;2024-03-08T14:24:46;9.70;99.90
12853;DHT22;6495;51.808;7.478;2024-03-08T14:27:16;9.70;99.90
12853;DHT22;6495;51.808;7.478;2024-03-08T14:29:47;9.70;99.90
12853;DHT22;6495;51.808;7.478;2024-03-08T14:32:15;9.80;99.90
12853;DHT22;6495;51.808;7.478;2024-03-08T14:34:46;9.80;99.90
12853;DHT22;6495;51.808;7.478;2024-03-08T14:37:16;9.80;99.90
12853;DHT22;6495;51.808;7.478;2024-03-08T14:39:53;9.80;99.90
12853;DHT22;6495;51.808;7.478;2024-03-08T14:42:21;9.90;99.90
12853;DHT22;6495;51.808;7.478;2024-03-08T14:44:52;9.90;99.90
12853;DHT22;6495;51.808;7.478;2024-03-08T14:47:21;9.90;99.90
12853;DHT22;6495;51.808;7.478;2024-03-08T14:49:50;9.90;99.90
12853;DHT22;6495;51.808;7.478;2024-03-08T14:52:19;9.90;99.90
12853;DHT22;6495;51.808;7.478;2024-03-08T14:55:05;9.90;99.90
12853;DHT22;6495;51.808;7.478;2024-03-08T14:57:34;9.90;99.90
12853;DHT22;6495;51.808;7.478;2024-03-08T15:00:05;9.90;99.90
12853;DHT22;6495;51.808;7.478;2024-03-08T15:02:43;9.90;99.90
12853;DHT22;6495;51.808;7.478;2024-03-08T15:05:13;9.90;99.90
12853;DHT22;6495;51.808;7.478;2024-03-08T15:07:48;9.90;99.90
12853;DHT22;6495;51.808;7.478;2024-03-08T15:10:16;9.80;99.90
12853;DHT22;6495;51.808;7.478;2024-03-08T15:12:47;9.80;99.90
12853;DHT22;6495;51.808;7.478;2024-03-08T15:15:19;9.80;99.90
12853;DHT22;6495;51.808;7.478;2024-03-08T15:17:49;9.80;99.90
12853;DHT22;6495;51.808;7.478;2024-03-08T15:20:18;9.80;99.90
12853;DHT22;6495;51.808;7.478;2024-03-08T15:22:56;9.80;99.90
12853;DHT22;6495;51.808;7.478;2024-03-08T15:25:26;9.80;99.90
12853;DHT22;6495;51.808;7.478;2024-03-08T15:28:06;9.90;99.90
12853;DHT22;6495;51.808;7.478;2024-03-08T15:30:42;9.90;99.90
12853;DHT22;6495;51.808;7.478;2024-03-08T15:33:13;9.90;99.90
12853;DHT22;6495;51.808;7.478;2024-03-08T15:35:51;9.90;99.90
12853;DHT22;6495;51.808;7.478;2024-03-08T15:38:26;9.90;99.90
12853;DHT22;6495;51.808;7.478;2024-03-08T15:41:05;9.90;99.90
12853;DHT22;6495;51.808;7.478;2024-03-08T15:43:38;9.90;99.90
12853;DHT22;6495;51.808;7.478;2024-03-08T15:47:04;9.90;99.90
12853;DHT22;6495;51.808;7.478;2024-03-08T15:50:25;9.90;99.90
12853;DHT22;6495;51.808;7.478;2024-03-08T15:53:01;9.90;99.90
12853;DHT22;6495;51.808;7.478;2024-03-08T15:55:31;9.90;99.90
12853;DHT22;6495;51.808;7.478;2024-03-08T15:58:05;9.90;99.90
12853;DHT22;6495;51.808;7.478;2024-03-08T16:00:43;9.80;99.90
12853;DHT22;6495;51.808;7.478;2024-03-08T16:03:36;9.80;99.90
12853;DHT22;6495;51.808;7.478;2024-03-08T16:06:05;9.80;99.90
12853;DHT22;6495;51.808;7.478;2024-03-08T16:08:33;9.80;99.90
12853;DHT22;6495;51.808;7.478;2024-03-08T16:11:09;9.80;99.90
12853;DHT22;6495;51.808;7.478;2024-03-08T16:13:37;9.70;99.90
12853;DHT22;6495;51.808;7.478;2024-03-08T16:16:06;9.70;99.90
12853;DHT22;6495;51.808;7.478;2024-03-08T16:18:34;9.60;99.90
12853;DHT22;6495;51.808;7.478;2024-03-08T16:21:05;9.60;99.90
12853;DHT22;6495;51.808;7.478;2024-03-08T16:23:35;9.60;99.90
12853;DHT22;6495;51.808;7.478;2024-03-08T16:26:06;9.60;99.90
12853;DHT22;6495;51.808;7.478;2024-03-08T16:28:36;9.50;99.90
12853;DHT22;6495;51.808;7.478;2024-03-08T16:31:09;9.50;99.90
12853;DHT22;6495;51.808;7.478;2024-03-08T16:33:43;9.50;99.90
12853;DHT22;6495;51.808;7.478;2024-03-08T16:36:12;9.40;99.90
12853;DHT22;6495;51.808;7.478;2024-03-08T16:38:41;9.40;99.90
12853;DHT22;6495;51.808;7.478;2024-03-08T16:41:12;9.40;99.90
12853;DHT22;6495;51.808;7.478;2024-03-08T16:43:41;9.30;99.90
12853;DHT22;6495;51.808;7.478;2024-03-08T16:46:11;9.30;99.90
12853;DHT22;6495;51.808;7.478;2024-03-08T16:48:40;9.30;99.90
12853;DHT22;6495;51.808;7.478;2024-03-08T16:51:10;9.30;99.90
12853;DHT22;6495;51.808;7.478;2024-03-08T16:53:39;9.30;99.90
12853;DHT22;6495;51.808;7.478;2024-03-08T16:56:09;9.30;99.90
12853;DHT22;6495;51.808;7.478;2024-03-08T16:58:39;9.20;99.90
12853;DHT22;6495;51.808;7.478;2024-03-08T17:01:09;9.30;99.90
12853;DHT22;6495;51.808;7.478;2024-03-08T17:03:38;9.20;99.90
12853;DHT22;6495;51.808;7.478;2024-03-08T17:06:23;9.20;99.90
12853;DHT22;6495;51.808;7.478;2024-03-08T17:08:53;9.20;99.90
12853;DHT22;6495;51.808;7.478;2024-03-08T17:11:21;9.20;99.90
12853;DHT22;6495;51.808;7.478;2024-03-08T17:13:51;9.10;99.90
12853;DHT22;6495;51.808;7.478;2024-03-08T17:16:20;9.10;99.90
12853;DHT22;6495;51.808;7.478;2024-03-08T17:18:51;9.10;99.90